« 初夢 富山空港 2014/3/8 sat | トップページ | 惜愁-最後の日ニ 石垣空港 2013/3/6 wed »

2014/03/09

惜愁-最後の日ハ 石垣空港 2013/3/6 wed

露西亜のロからつづき

波照間のハ

ROIG 060300Z 07009KT 9999 FEW040 SCT050 BKN080 22/13 Q1022

20130306_roig_51ja8938

JTA605 ROAH-ROIG JA8938 B737-4Q3

20130306_roig_52ja03an

ANA1765 ROAH-ROIG JA03AN B737-781

20130306_roig_53ja8974

RAC743 ROIG-ROYN JA8974 DHC-8-103

20130306_roig_54ja8938_2

JTA608 ROIG-ROAH JA8938 B737-4Q3

20130306_roig_55ja18an

ANA1768 ROIG-ROAH JA18AN B737-781

ROIG 060400Z 07009KT 050V110 9999 SCT036 BKN050 21/13 Q1022

20130306_roig_56ja03an

ANA119 RJGG-ROIG JA02AN B737-781

20130306_roig_57ja03an

ANA1770 ROIG-ROAH JA03AN B737-781

20130306_roig_58ja356k

ANA1771 ROAH-ROIG JA356K B737-5L9

20130306_roig_59ja03an

ANA1792 この日の一大イベントの為に待機して到着を待ちます。

20130306_roig_60ja8999

前日夜、台湾から石垣上空を通過して那覇にたどり着いた、南西航空塗装の記念機が、那覇での報道披露を終えて、やって来た。なんとか間に合ってよかったネ!

20130306_roig_61ja8999

20130306_roig_62ja8999

20130306_roig_63ja8999

JTA609 ROAH-ROIG JA8999 B737-446

滑走路脇には地元の人も集まって、大歓迎の熱気に包まれていた。

20130306_roig_64ja8974

RAC744 ROYN-ROIG JA8974 DHC-8-103

20130306_roig_66ja03an

ANA1792 ROIG-ROMY JA03AN B737-781

20130306_roig_67ja867a

20130306_roig_68ja867a

JA867A B350 JCG お別れのローアプローチを実施してパトロールに出かけた。

ROIG 060500Z 07009KT 030V110 9999 FEW037 SCT080 22/13 Q1021

20130306_roig_69ja356k

ANA1774 ROIG-ROAH JA356K B737-5L9

20130306_roig_70ja8974

RAC834 ROIG-ROMY JA8974 DHC-8-103

20130306_roig_71ja8999

20130306_roig_72ja8999

20130306_roig_73ja8999

20130306_roig_74ja8999

滑走路端でフォトセッション。

20130306_roig_75ja8999

JTA614 ROIG-ROAH JA8999 B737-446

惜愁-最後の日ニにつづく・・・

|

« 初夢 富山空港 2014/3/8 sat | トップページ | 惜愁-最後の日ニ 石垣空港 2013/3/6 wed »

石垣空港」カテゴリの記事

コメント

コメントを書く



(ウェブ上には掲載しません)


コメントは記事投稿者が公開するまで表示されません。



トラックバック


この記事へのトラックバック一覧です: 惜愁-最後の日ハ 石垣空港 2013/3/6 wed:

« 初夢 富山空港 2014/3/8 sat | トップページ | 惜愁-最後の日ニ 石垣空港 2013/3/6 wed »